sensor_id;sensor_type;location;lat;lon;timestamp;pressure;altitude;pressure_sealevel;temperature;humidity
11680;BME280;5896;42.686;23.142;2024-03-02T00:02:13;92554.22;;;5.53;87.90
11680;BME280;5896;42.686;23.142;2024-03-02T00:04:39;92552.03;;;5.76;86.73
11680;BME280;5896;42.686;23.142;2024-03-02T00:07:06;92548.28;;;5.85;86.43
11680;BME280;5896;42.686;23.142;2024-03-02T00:09:31;92549.91;;;5.40;87.97
11680;BME280;5896;42.686;23.142;2024-03-02T00:11:58;92552.25;;;5.42;88.27
11680;BME280;5896;42.686;23.142;2024-03-02T00:14:24;92559.31;;;5.53;87.88
11680;BME280;5896;42.686;23.142;2024-03-02T00:16:51;92555.59;;;5.62;87.89
11680;BME280;5896;42.686;23.142;2024-03-02T00:19:17;92545.75;;;5.72;87.63
11680;BME280;5896;42.686;23.142;2024-03-02T00:21:42;92552.81;;;5.70;87.70
11680;BME280;5896;42.686;23.142;2024-03-02T00:24:31;92547.69;;;5.83;86.56
11680;BME280;5896;42.686;23.142;2024-03-02T00:26:57;92554.78;;;5.88;86.20
11680;BME280;5896;42.686;23.142;2024-03-02T00:29:22;92560.72;;;5.95;85.86
11680;BME280;5896;42.686;23.142;2024-03-02T00:31:47;92551.03;;;5.84;86.24
11680;BME280;5896;42.686;23.142;2024-03-02T00:34:13;92548.47;;;5.77;86.18
11680;BME280;5896;42.686;23.142;2024-03-02T00:36:41;92540.97;;;5.82;86.29
11680;BME280;5896;42.686;23.142;2024-03-02T00:39:07;92544.16;;;5.71;87.02
11680;BME280;5896;42.686;23.142;2024-03-02T00:41:33;92541.41;;;5.53;88.28
11680;BME280;5896;42.686;23.142;2024-03-02T00:44:03;92544.97;;;5.52;88.01
11680;BME280;5896;42.686;23.142;2024-03-02T00:46:40;92545.97;;;5.57;88.18
11680;BME280;5896;42.686;23.142;2024-03-02T00:49:18;92555.00;;;5.73;87.13
11680;BME280;5896;42.686;23.142;2024-03-02T00:51:47;92545.91;;;5.84;86.89
11680;BME280;5896;42.686;23.142;2024-03-02T00:54:14;92558.50;;;5.85;86.25
11680;BME280;5896;42.686;23.142;2024-03-02T00:56:41;92540.38;;;5.87;85.88
11680;BME280;5896;42.686;23.142;2024-03-02T00:59:07;92535.28;;;5.80;86.56
11680;BME280;5896;42.686;23.142;2024-03-02T01:01:34;92535.47;;;5.79;86.22
11680;BME280;5896;42.686;23.142;2024-03-02T01:03:59;92539.03;;;5.71;86.70
11680;BME280;5896;42.686;23.142;2024-03-02T01:06:25;92535.69;;;5.77;87.07
11680;BME280;5896;42.686;23.142;2024-03-02T01:08:50;92534.91;;;5.83;87.29
11680;BME280;5896;42.686;23.142;2024-03-02T01:11:16;92541.41;;;5.66;88.29
11680;BME280;5896;42.686;23.142;2024-03-02T01:13:43;92543.19;;;5.72;88.48
11680;BME280;5896;42.686;23.142;2024-03-02T01:16:08;92544.19;;;5.45;89.24
11680;BME280;5896;42.686;23.142;2024-03-02T01:18:33;92541.44;;;5.46;89.69
11680;BME280;5896;42.686;23.142;2024-03-02T01:20:59;92539.88;;;5.12;90.87
11680;BME280;5896;42.686;23.142;2024-03-02T01:23:25;92531.59;;;5.10;92.14
11680;BME280;5896;42.686;23.142;2024-03-02T01:25:51;92528.44;;;5.34;90.67
11680;BME280;5896;42.686;23.142;2024-03-02T01:28:17;92525.47;;;5.51;89.43
11680;BME280;5896;42.686;23.142;2024-03-02T01:30:44;92523.13;;;5.49;89.44
11680;BME280;5896;42.686;23.142;2024-03-02T01:33:09;92522.88;;;5.64;89.35
11680;BME280;5896;42.686;23.142;2024-03-02T01:35:34;92522.50;;;5.60;89.89
11680;BME280;5896;42.686;23.142;2024-03-02T01:38:00;92513.84;;;5.42;90.31
11680;BME280;5896;42.686;23.142;2024-03-02T01:40:26;92507.94;;;5.41;90.30
11680;BME280;5896;42.686;23.142;2024-03-02T01:42:52;92511.28;;;5.55;89.92
11680;BME280;5896;42.686;23.142;2024-03-02T01:45:23;92504.56;;;5.67;89.16
11680;BME280;5896;42.686;23.142;2024-03-02T01:47:49;92511.84;;;5.70;89.23
11680;BME280;5896;42.686;23.142;2024-03-02T01:50:15;92513.41;;;5.78;88.83
11680;BME280;5896;42.686;23.142;2024-03-02T01:52:50;92513.44;;;5.71;88.51
11680;BME280;5896;42.686;23.142;2024-03-02T01:55:15;92508.53;;;5.63;89.31
11680;BME280;5896;42.686;23.142;2024-03-02T01:57:41;92512.47;;;5.52;89.39
11680;BME280;5896;42.686;23.142;2024-03-02T02:00:07;92508.94;;;5.47;90.52
11680;BME280;5896;42.686;23.142;2024-03-02T02:02:32;92512.69;;;5.51;90.66
11680;BME280;5896;42.686;23.142;2024-03-02T02:04:59;92520.34;;;5.37;90.69
11680;BME280;5896;42.686;23.142;2024-03-02T02:07:24;92516.22;;;5.30;90.56
11680;BME280;5896;42.686;23.142;2024-03-02T02:09:50;92509.38;;;5.30;91.39
11680;BME280;5896;42.686;23.142;2024-03-02T02:12:16;92483.75;;;5.37;90.79
11680;BME280;5896;42.686;23.142;2024-03-02T02:14:47;92505.19;;;5.63;90.53
11680;BME280;5896;42.686;23.142;2024-03-02T02:17:13;92505.00;;;5.57;90.19
11680;BME280;5896;42.686;23.142;2024-03-02T02:19:40;92508.56;;;5.50;90.30
11680;BME280;5896;42.686;23.142;2024-03-02T02:22:06;92510.91;;;5.65;89.83
11680;BME280;5896;42.686;23.142;2024-03-02T02:24:31;92509.94;;;5.46;90.46
11680;BME280;5896;42.686;23.142;2024-03-02T02:26:56;92507.97;;;5.34;91.78
11680;BME280;5896;42.686;23.142;2024-03-02T02:29:22;92505.41;;;5.34;90.63
11680;BME280;5896;42.686;23.142;2024-03-02T02:31:47;92497.56;;;5.23;92.33
11680;BME280;5896;42.686;23.142;2024-03-02T02:34:14;92505.03;;;5.31;92.11
11680;BME280;5896;42.686;23.142;2024-03-02T02:36:39;92493.19;;;5.36;91.74
11680;BME280;5896;42.686;23.142;2024-03-02T02:39:07;92497.75;;;5.08;93.10
11680;BME280;5896;42.686;23.142;2024-03-02T02:41:33;92500.66;;;5.45;92.20
11680;BME280;5896;42.686;23.142;2024-03-02T02:43:59;92504.56;;;5.60;90.68
11680;BME280;5896;42.686;23.142;2024-03-02T02:46:24;92508.31;;;5.71;89.68
11680;BME280;5896;42.686;23.142;2024-03-02T02:48:49;92499.66;;;5.72;89.02
11680;BME280;5896;42.686;23.142;2024-03-02T02:51:17;92504.63;;;5.54;90.35
11680;BME280;5896;42.686;23.142;2024-03-02T02:53:42;92507.19;;;5.27;91.85
11680;BME280;5896;42.686;23.142;2024-03-02T02:56:07;92507.38;;;5.32;91.72
11680;BME280;5896;42.686;23.142;2024-03-02T02:58:33;92503.44;;;5.30;91.50
11680;BME280;5896;42.686;23.142;2024-03-02T03:00:58;92510.53;;;5.15;92.34
11680;BME280;5896;42.686;23.142;2024-03-02T03:03:24;92512.28;;;5.07;93.32
11680;BME280;5896;42.686;23.142;2024-03-02T03:05:49;92509.94;;;5.12;93.92
11680;BME280;5896;42.686;23.142;2024-03-02T03:08:15;92507.00;;;5.35;92.90
11680;BME280;5896;42.686;23.142;2024-03-02T03:10:41;92506.56;;;5.58;90.12
11680;BME280;5896;42.686;23.142;2024-03-02T03:13:07;92507.34;;;5.59;90.11
11680;BME280;5896;42.686;23.142;2024-03-02T03:15:34;92509.13;;;5.52;89.86
11680;BME280;5896;42.686;23.142;2024-03-02T03:18:02;92512.06;;;5.49;90.50
11680;BME280;5896;42.686;23.142;2024-03-02T03:20:29;92507.16;;;5.41;90.50
11680;BME280;5896;42.686;23.142;2024-03-02T03:22:54;92505.03;;;5.24;91.60
11680;BME280;5896;42.686;23.142;2024-03-02T03:25:19;92509.38;;;5.30;91.70
11680;BME280;5896;42.686;23.142;2024-03-02T03:27:45;92508.34;;;5.45;90.80
11680;BME280;5896;42.686;23.142;2024-03-02T03:30:11;92505.41;;;5.34;91.00
11680;BME280;5896;42.686;23.142;2024-03-02T03:32:36;92500.09;;;4.96;93.68
11680;BME280;5896;42.686;23.142;2024-03-02T03:35:03;92506.19;;;5.02;93.91
11680;BME280;5896;42.686;23.142;2024-03-02T03:37:29;92512.09;;;5.09;93.98
11680;BME280;5896;42.686;23.142;2024-03-02T03:39:58;92508.16;;;5.26;92.85
11680;BME280;5896;42.686;23.142;2024-03-02T03:42:24;92517.81;;;5.31;92.62
11680;BME280;5896;42.686;23.142;2024-03-02T03:44:49;92511.13;;;5.17;93.05
11680;BME280;5896;42.686;23.142;2024-03-02T03:47:15;92510.31;;;5.03;93.51
11680;BME280;5896;42.686;23.142;2024-03-02T03:49:40;92497.94;;;5.06;93.32
11680;BME280;5896;42.686;23.142;2024-03-02T03:52:06;92505.81;;;5.11;93.84
11680;BME280;5896;42.686;23.142;2024-03-02T03:54:31;92499.72;;;5.06;93.68
11680;BME280;5896;42.686;23.142;2024-03-02T03:56:56;92506.00;;;5.17;93.30
11680;BME280;5896;42.686;23.142;2024-03-02T03:59:22;92506.22;;;5.08;93.84
11680;BME280;5896;42.686;23.142;2024-03-02T04:01:47;92511.50;;;5.07;93.83
11680;BME280;5896;42.686;23.142;2024-03-02T04:04:13;92512.47;;;4.99;93.81
11680;BME280;5896;42.686;23.142;2024-03-02T04:06:38;92504.59;;;4.87;94.31
11680;BME280;5896;42.686;23.142;2024-03-02T04:09:03;92512.69;;;4.98;95.03
11680;BME280;5896;42.686;23.142;2024-03-02T04:11:29;92508.16;;;4.93;94.67
11680;BME280;5896;42.686;23.142;2024-03-02T04:13:55;92504.22;;;4.77;96.03
11680;BME280;5896;42.686;23.142;2024-03-02T04:16:21;92515.22;;;4.91;95.95
11680;BME280;5896;42.686;23.142;2024-03-02T04:18:47;92505.41;;;4.81;95.82
11680;BME280;5896;42.686;23.142;2024-03-02T04:21:12;92500.69;;;4.78;96.28
11680;BME280;5896;42.686;23.142;2024-03-02T04:23:38;92505.22;;;4.90;95.72
11680;BME280;5896;42.686;23.142;2024-03-02T04:26:03;92506.41;;;5.13;95.28
11680;BME280;5896;42.686;23.142;2024-03-02T04:28:29;92504.41;;;5.22;94.49
11680;BME280;5896;42.686;23.142;2024-03-02T04:30:54;92505.81;;;5.25;94.28
11680;BME280;5896;42.686;23.142;2024-03-02T04:33:20;92511.72;;;5.39;93.47
11680;BME280;5896;42.686;23.142;2024-03-02T04:35:45;92510.69;;;5.53;92.32
11680;BME280;5896;42.686;23.142;2024-03-02T04:38:11;92513.25;;;5.53;91.75
11680;BME280;5896;42.686;23.142;2024-03-02T04:40:37;92521.53;;;5.55;91.63
11680;BME280;5896;42.686;23.142;2024-03-02T04:43:02;92508.72;;;5.55;91.58
11680;BME280;5896;42.686;23.142;2024-03-02T04:45:28;92521.53;;;5.22;93.33
11680;BME280;5896;42.686;23.142;2024-03-02T04:47:54;92515.06;;;5.19;93.71
11680;BME280;5896;42.686;23.142;2024-03-02T04:50:19;92512.47;;;4.99;94.15
11680;BME280;5896;42.686;23.142;2024-03-02T04:52:45;92515.03;;;4.99;95.29
11680;BME280;5896;42.686;23.142;2024-03-02T04:55:10;92514.06;;;5.07;94.43
11680;BME280;5896;42.686;23.142;2024-03-02T04:57:50;92521.16;;;5.11;94.67
11680;BME280;5896;42.686;23.142;2024-03-02T05:00:16;92513.09;;;5.28;93.93
11680;BME280;5896;42.686;23.142;2024-03-02T05:02:42;92512.91;;;5.43;92.44
11680;BME280;5896;42.686;23.142;2024-03-02T05:05:08;92520.97;;;5.20;93.78
11680;BME280;5896;42.686;23.142;2024-03-02T05:07:33;92523.72;;;5.18;94.11
11680;BME280;5896;42.686;23.142;2024-03-02T05:09:58;92529.81;;;5.37;92.87
11680;BME280;5896;42.686;23.142;2024-03-02T05:12:24;92523.50;;;5.26;93.12
11680;BME280;5896;42.686;23.142;2024-03-02T05:15:11;92527.66;;;5.01;94.49
11680;BME280;5896;42.686;23.142;2024-03-02T05:17:37;92522.72;;;5.06;94.82
11680;BME280;5896;42.686;23.142;2024-03-02T05:20:06;92523.69;;;4.92;95.04
11680;BME280;5896;42.686;23.142;2024-03-02T05:22:35;92529.03;;;5.10;95.49
11680;BME280;5896;42.686;23.142;2024-03-02T05:25:02;92529.81;;;5.24;94.40
11680;BME280;5896;42.686;23.142;2024-03-02T05:27:27;92537.31;;;5.32;94.49
11680;BME280;5896;42.686;23.142;2024-03-02T05:29:53;92532.38;;;5.30;93.99
11680;BME280;5896;42.686;23.142;2024-03-02T05:32:18;92534.53;;;5.33;94.33
11680;BME280;5896;42.686;23.142;2024-03-02T05:34:43;92535.31;;;5.47;94.58
11680;BME280;5896;42.686;23.142;2024-03-02T05:37:09;92540.44;;;5.41;94.15
11680;BME280;5896;42.686;23.142;2024-03-02T05:39:34;92540.41;;;5.07;95.00
11680;BME280;5896;42.686;23.142;2024-03-02T05:41:59;92542.78;;;5.22;95.30
11680;BME280;5896;42.686;23.142;2024-03-02T05:44:25;92548.13;;;5.41;94.81
11680;BME280;5896;42.686;23.142;2024-03-02T05:46:50;92550.66;;;5.34;94.13
11680;BME280;5896;42.686;23.142;2024-03-02T05:49:16;92552.84;;;5.30;94.29
11680;BME280;5896;42.686;23.142;2024-03-02T05:51:41;92547.13;;;5.15;94.60
11680;BME280;5896;42.686;23.142;2024-03-02T05:54:07;92554.41;;;5.25;94.80
11680;BME280;5896;42.686;23.142;2024-03-02T05:56:32;92555.78;;;5.14;95.54
11680;BME280;5896;42.686;23.142;2024-03-02T05:58:58;92560.28;;;4.92;97.06
11680;BME280;5896;42.686;23.142;2024-03-02T06:01:38;92554.59;;;5.10;96.46
11680;BME280;5896;42.686;23.142;2024-03-02T06:04:03;92551.88;;;5.11;96.61
11680;BME280;5896;42.686;23.142;2024-03-02T06:06:29;92558.53;;;5.26;95.90
11680;BME280;5896;42.686;23.142;2024-03-02T06:08:54;92554.03;;;5.28;95.34
11680;BME280;5896;42.686;23.142;2024-03-02T06:11:20;92557.75;;;5.52;94.64
11680;BME280;5896;42.686;23.142;2024-03-02T06:13:45;92550.66;;;5.60;93.62
11680;BME280;5896;42.686;23.142;2024-03-02T06:16:11;92553.59;;;5.64;93.48
11680;BME280;5896;42.686;23.142;2024-03-02T06:18:36;92556.78;;;5.73;93.08
11680;BME280;5896;42.686;23.142;2024-03-02T06:21:02;92553.78;;;5.82;93.18
11680;BME280;5896;42.686;23.142;2024-03-02T06:23:28;92549.44;;;5.90;92.14
11680;BME280;5896;42.686;23.142;2024-03-02T06:25:54;92562.47;;;5.88;92.56
11680;BME280;5896;42.686;23.142;2024-03-02T06:28:19;92556.13;;;5.91;92.24
11680;BME280;5896;42.686;23.142;2024-03-02T06:30:46;92558.69;;;5.91;92.06
11680;BME280;5896;42.686;23.142;2024-03-02T06:33:11;92564.03;;;5.89;92.13
11680;BME280;5896;42.686;23.142;2024-03-02T06:35:36;92566.38;;;5.91;91.29
11680;BME280;5896;42.686;23.142;2024-03-02T06:38:02;92564.84;;;5.76;92.65
11680;BME280;5896;42.686;23.142;2024-03-02T06:40:27;92568.38;;;5.89;92.05
11680;BME280;5896;42.686;23.142;2024-03-02T06:42:53;92566.22;;;5.92;91.62
11680;BME280;5896;42.686;23.142;2024-03-02T06:45:18;92576.25;;;5.94;91.86
11680;BME280;5896;42.686;23.142;2024-03-02T06:47:44;92569.75;;;5.91;92.38
11680;BME280;5896;42.686;23.142;2024-03-02T06:50:09;92575.66;;;5.92;92.07
11680;BME280;5896;42.686;23.142;2024-03-02T06:52:35;92572.13;;;5.99;91.70
11680;BME280;5896;42.686;23.142;2024-03-02T06:55:01;92574.47;;;6.07;91.19
11680;BME280;5896;42.686;23.142;2024-03-02T06:57:26;92572.91;;;6.06;91.33
11680;BME280;5896;42.686;23.142;2024-03-02T06:59:52;92577.63;;;6.03;91.34
11680;BME280;5896;42.686;23.142;2024-03-02T07:02:20;92581.16;;;6.08;91.29
11680;BME280;5896;42.686;23.142;2024-03-02T07:04:46;92581.56;;;6.05;91.41
11680;BME280;5896;42.686;23.142;2024-03-02T07:07:12;92578.41;;;6.10;91.35
11680;BME280;5896;42.686;23.142;2024-03-02T07:09:37;92582.16;;;6.14;91.56
11680;BME280;5896;42.686;23.142;2024-03-02T07:12:03;92581.56;;;5.79;92.95
11680;BME280;5896;42.686;23.142;2024-03-02T07:14:28;92587.69;;;5.78;93.59
11680;BME280;5896;42.686;23.142;2024-03-02T07:17:14;92590.81;;;5.86;92.52
11680;BME280;5896;42.686;23.142;2024-03-02T07:19:39;92586.88;;;6.04;92.43
11680;BME280;5896;42.686;23.142;2024-03-02T07:22:07;92584.16;;;5.99;92.09
11680;BME280;5896;42.686;23.142;2024-03-02T07:24:42;92591.03;;;5.98;92.77
11680;BME280;5896;42.686;23.142;2024-03-02T07:27:12;92586.06;;;6.17;92.46
11680;BME280;5896;42.686;23.142;2024-03-02T07:29:39;92588.63;;;6.23;92.50
11680;BME280;5896;42.686;23.142;2024-03-02T07:32:05;92581.53;;;6.25;92.69
11680;BME280;5896;42.686;23.142;2024-03-02T07:34:31;92592.31;;;6.41;91.53
11680;BME280;5896;42.686;23.142;2024-03-02T07:36:57;92595.06;;;6.46;91.34
11680;BME280;5896;42.686;23.142;2024-03-02T07:39:22;92586.13;;;6.55;91.26
11680;BME280;5896;42.686;23.142;2024-03-02T07:41:48;92592.53;;;6.32;92.28
11680;BME280;5896;42.686;23.142;2024-03-02T07:44:13;92595.03;;;6.52;91.37
11680;BME280;5896;42.686;23.142;2024-03-02T07:46:43;92601.72;;;6.53;91.28
11680;BME280;5896;42.686;23.142;2024-03-02T07:49:08;92600.22;;;6.32;91.96
11680;BME280;5896;42.686;23.142;2024-03-02T07:51:34;92595.22;;;6.51;91.93
11680;BME280;5896;42.686;23.142;2024-03-02T07:54:00;92599.16;;;6.60;91.18
11680;BME280;5896;42.686;23.142;2024-03-02T07:56:26;92599.16;;;6.53;90.64
11680;BME280;5896;42.686;23.142;2024-03-02T07:58:51;92602.06;;;6.70;90.06
11680;BME280;5896;42.686;23.142;2024-03-02T08:01:17;92596.84;;;6.45;92.52
11680;BME280;5896;42.686;23.142;2024-03-02T08:03:43;92594.28;;;6.45;91.13
11680;BME280;5896;42.686;23.142;2024-03-02T08:06:13;92604.53;;;6.45;91.61
11680;BME280;5896;42.686;23.142;2024-03-02T08:08:40;92606.31;;;6.31;92.41
11680;BME280;5896;42.686;23.142;2024-03-02T08:11:05;92612.00;;;6.53;91.64
11680;BME280;5896;42.686;23.142;2024-03-02T08:13:31;92610.41;;;6.52;91.71
11680;BME280;5896;42.686;23.142;2024-03-02T08:15:56;92618.63;;;6.74;91.24
11680;BME280;5896;42.686;23.142;2024-03-02T08:18:22;92616.22;;;6.79;90.12
11680;BME280;5896;42.686;23.142;2024-03-02T08:20:47;92614.13;;;6.63;90.52
11680;BME280;5896;42.686;23.142;2024-03-02T08:23:13;92623.38;;;6.71;91.46
11680;BME280;5896;42.686;23.142;2024-03-02T08:25:38;92614.31;;;6.62;91.78
11680;BME280;5896;42.686;23.142;2024-03-02T08:28:03;92611.88;;;6.80;90.04
11680;BME280;5896;42.686;23.142;2024-03-02T08:30:29;92624.03;;;6.98;88.57
11680;BME280;5896;42.686;23.142;2024-03-02T08:32:55;92610.94;;;7.13;88.96
11680;BME280;5896;42.686;23.142;2024-03-02T08:35:20;92614.69;;;7.10;89.10
11680;BME280;5896;42.686;23.142;2024-03-02T08:37:47;92606.84;;;7.05;88.86
11680;BME280;5896;42.686;23.142;2024-03-02T08:40:13;92614.84;;;7.15;88.67
11680;BME280;5896;42.686;23.142;2024-03-02T08:42:39;92617.66;;;6.69;91.72
11680;BME280;5896;42.686;23.142;2024-03-02T08:45:04;92615.88;;;6.63;91.12
11680;BME280;5896;42.686;23.142;2024-03-02T08:47:31;92619.13;;;6.45;92.29
11680;BME280;5896;42.686;23.142;2024-03-02T08:49:56;92625.97;;;6.64;92.09
11680;BME280;5896;42.686;23.142;2024-03-02T08:52:21;92610.44;;;6.97;91.50
11680;BME280;5896;42.686;23.142;2024-03-02T08:54:47;92614.97;;;7.27;89.98
11680;BME280;5896;42.686;23.142;2024-03-02T08:57:12;92617.22;;;7.48;88.22
11680;BME280;5896;42.686;23.142;2024-03-02T08:59:38;92615.03;;;7.52;86.65
11680;BME280;5896;42.686;23.142;2024-03-02T09:02:04;92620.09;;;7.34;87.54
11680;BME280;5896;42.686;23.142;2024-03-02T09:04:29;92616.09;;;7.38;88.60
11680;BME280;5896;42.686;23.142;2024-03-02T09:06:54;92618.69;;;7.38;87.05
11680;BME280;5896;42.686;23.142;2024-03-02T09:09:20;92630.16;;;7.35;87.52
11680;BME280;5896;42.686;23.142;2024-03-02T09:11:46;92628.19;;;6.99;88.86
11680;BME280;5896;42.686;23.142;2024-03-02T09:14:11;92636.88;;;6.98;90.54
11680;BME280;5896;42.686;23.142;2024-03-02T09:16:37;92628.47;;;7.16;88.79
11680;BME280;5896;42.686;23.142;2024-03-02T09:19:03;92630.00;;;7.23;88.97
11680;BME280;5896;42.686;23.142;2024-03-02T09:21:28;92640.78;;;7.00;89.76
11680;BME280;5896;42.686;23.142;2024-03-02T09:23:55;92645.84;;;6.75;90.30
11680;BME280;5896;42.686;23.142;2024-03-02T09:26:21;92649.41;;;6.74;90.42
11680;BME280;5896;42.686;23.142;2024-03-02T09:28:47;92647.19;;;6.85;90.87
11680;BME280;5896;42.686;23.142;2024-03-02T09:31:13;92643.44;;;6.22;92.43
11680;BME280;5896;42.686;23.142;2024-03-02T09:33:38;92645.34;;;6.40;93.70
11680;BME280;5896;42.686;23.142;2024-03-02T09:36:17;92650.78;;;6.70;92.72
11680;BME280;5896;42.686;23.142;2024-03-02T09:38:42;92651.97;;;6.74;91.88
11680;BME280;5896;42.686;23.142;2024-03-02T09:41:08;92654.25;;;6.89;90.58
11680;BME280;5896;42.686;23.142;2024-03-02T09:43:33;92653.78;;;6.67;91.48
11680;BME280;5896;42.686;23.142;2024-03-02T09:45:59;92649.25;;;6.56;92.87
11680;BME280;5896;42.686;23.142;2024-03-02T09:48:24;92655.34;;;6.62;90.73
11680;BME280;5896;42.686;23.142;2024-03-02T09:50:50;92649.22;;;6.69;91.39
11680;BME280;5896;42.686;23.142;2024-03-02T09:53:15;92654.47;;;6.88;90.06
11680;BME280;5896;42.686;23.142;2024-03-02T09:55:46;92646.53;;;6.96;89.19
11680;BME280;5896;42.686;23.142;2024-03-02T09:58:11;92653.13;;;6.78;90.42
11680;BME280;5896;42.686;23.142;2024-03-02T10:00:37;92648.34;;;6.89;90.34
11680;BME280;5896;42.686;23.142;2024-03-02T10:03:03;92647.09;;;6.60;91.66
11680;BME280;5896;42.686;23.142;2024-03-02T10:05:30;92644.00;;;6.31;92.98
11680;BME280;5896;42.686;23.142;2024-03-02T10:07:59;92650.28;;;6.35;93.27
11680;BME280;5896;42.686;23.142;2024-03-02T10:10:34;92646.94;;;6.41;94.19
11680;BME280;5896;42.686;23.142;2024-03-02T10:13:07;92648.50;;;6.49;91.88
11680;BME280;5896;42.686;23.142;2024-03-02T10:15:33;92640.56;;;6.57;91.93
11680;BME280;5896;42.686;23.142;2024-03-02T10:17:58;92642.03;;;6.85;91.85
11680;BME280;5896;42.686;23.142;2024-03-02T10:20:25;92642.75;;;6.60;93.34
11680;BME280;5896;42.686;23.142;2024-03-02T10:22:51;92646.09;;;6.61;91.56
11680;BME280;5896;42.686;23.142;2024-03-02T10:25:30;92641.13;;;6.72;90.88
11680;BME280;5896;42.686;23.142;2024-03-02T10:28:00;92637.94;;;6.77;92.15
11680;BME280;5896;42.686;23.142;2024-03-02T10:30:28;92633.53;;;6.91;90.90
11680;BME280;5896;42.686;23.142;2024-03-02T10:32:54;92639.38;;;7.11;90.56
11680;BME280;5896;42.686;23.142;2024-03-02T10:35:22;92639.09;;;7.26;90.56
11680;BME280;5896;42.686;23.142;2024-03-02T10:37:49;92641.44;;;6.89;92.14
11680;BME280;5896;42.686;23.142;2024-03-02T10:40:14;92636.13;;;7.29;88.52
11680;BME280;5896;42.686;23.142;2024-03-02T10:42:41;92636.25;;;7.41;87.36
11680;BME280;5896;42.686;23.142;2024-03-02T10:45:09;92634.09;;;7.38;87.92
11680;BME280;5896;42.686;23.142;2024-03-02T10:47:36;92630.34;;;7.02;89.52
11680;BME280;5896;42.686;23.142;2024-03-02T10:50:04;92627.41;;;6.92;91.22
11680;BME280;5896;42.686;23.142;2024-03-02T10:52:31;92630.38;;;7.27;90.20
11680;BME280;5896;42.686;23.142;2024-03-02T10:54:56;92635.59;;;6.75;91.30
11680;BME280;5896;42.686;23.142;2024-03-02T10:57:25;92626.13;;;6.69;92.14
11680;BME280;5896;42.686;23.142;2024-03-02T10:59:52;92625.22;;;7.02;91.61
11680;BME280;5896;42.686;23.142;2024-03-02T11:02:21;92626.19;;;7.39;90.06
11680;BME280;5896;42.686;23.142;2024-03-02T11:04:49;92624.53;;;7.51;87.53
11680;BME280;5896;42.686;23.142;2024-03-02T11:07:18;92620.91;;;7.59;88.36
11680;BME280;5896;42.686;23.142;2024-03-02T11:09:54;92616.81;;;7.76;87.65
11680;BME280;5896;42.686;23.142;2024-03-02T11:12:29;92611.53;;;7.71;87.48
11680;BME280;5896;42.686;23.142;2024-03-02T11:14:56;92616.66;;;7.71;86.28
11680;BME280;5896;42.686;23.142;2024-03-02T11:17:23;92617.63;;;7.77;87.63
11680;BME280;5896;42.686;23.142;2024-03-02T11:19:49;92617.72;;;7.64;86.69
11680;BME280;5896;42.686;23.142;2024-03-02T11:22:15;92613.66;;;7.49;87.87
11680;BME280;5896;42.686;23.142;2024-03-02T11:24:48;92616.22;;;7.81;87.93
11680;BME280;5896;42.686;23.142;2024-03-02T11:27:14;92608.59;;;7.93;86.51
11680;BME280;5896;42.686;23.142;2024-03-02T11:32:22;92607.44;;;7.89;87.05
11680;BME280;5896;42.686;23.142;2024-03-02T11:34:50;92605.59;;;7.46;89.32
11680;BME280;5896;42.686;23.142;2024-03-02T11:37:17;92607.13;;;7.78;87.14
11680;BME280;5896;42.686;23.142;2024-03-02T11:39:49;92615.72;;;7.91;86.99
11680;BME280;5896;42.686;23.142;2024-03-02T11:42:15;92613.88;;;7.98;86.38
11680;BME280;5896;42.686;23.142;2024-03-02T11:44:47;92598.28;;;8.36;84.55
11680;BME280;5896;42.686;23.142;2024-03-02T11:47:15;92610.09;;;8.62;84.79
11680;BME280;5896;42.686;23.142;2024-03-02T11:49:49;92601.13;;;8.71;82.79
11680;BME280;5896;42.686;23.142;2024-03-02T11:52:15;92602.81;;;8.59;81.47
11680;BME280;5896;42.686;23.142;2024-03-02T11:54:43;92604.91;;;8.69;81.23
11680;BME280;5896;42.686;23.142;2024-03-02T11:57:16;92606.09;;;8.85;82.25
11680;BME280;5896;42.686;23.142;2024-03-02T11:59:42;92607.34;;;8.94;81.42
11680;BME280;5896;42.686;23.142;2024-03-02T12:02:14;92602.09;;;8.34;83.09
11680;BME280;5896;42.686;23.142;2024-03-02T12:04:40;92594.47;;;8.45;82.28
11680;BME280;5896;42.686;23.142;2024-03-02T12:07:06;92596.94;;;8.70;81.53
11680;BME280;5896;42.686;23.142;2024-03-02T12:09:31;92600.38;;;8.83;81.55
11680;BME280;5896;42.686;23.142;2024-03-02T12:14:29;92599.31;;;8.90;79.80
11680;BME280;5896;42.686;23.142;2024-03-02T12:16:55;92588.56;;;8.93;80.72
11680;BME280;5896;42.686;23.142;2024-03-02T12:19:21;92601.03;;;9.08;80.79
11680;BME280;5896;42.686;23.142;2024-03-02T12:21:46;92595.44;;;8.81;81.57
11680;BME280;5896;42.686;23.142;2024-03-02T12:24:12;92599.03;;;8.43;81.13
11680;BME280;5896;42.686;23.142;2024-03-02T12:26:37;92602.56;;;8.24;84.76
11680;BME280;5896;42.686;23.142;2024-03-02T12:29:03;92605.78;;;8.19;85.17
11680;BME280;5896;42.686;23.142;2024-03-02T12:31:28;92601.97;;;8.47;84.23
11680;BME280;5896;42.686;23.142;2024-03-02T12:33:54;92609.97;;;8.57;83.63
11680;BME280;5896;42.686;23.142;2024-03-02T12:36:20;92602.16;;;8.27;83.49
11680;BME280;5896;42.686;23.142;2024-03-02T12:38:45;92607.34;;;8.45;83.08
11680;BME280;5896;42.686;23.142;2024-03-02T12:41:14;92596.59;;;8.48;83.32
11680;BME280;5896;42.686;23.142;2024-03-02T12:43:40;92596.59;;;8.48;82.85
11680;BME280;5896;42.686;23.142;2024-03-02T12:46:06;92611.69;;;8.45;84.30
11680;BME280;5896;42.686;23.142;2024-03-02T12:48:31;92605.84;;;8.38;83.00
11680;BME280;5896;42.686;23.142;2024-03-02T12:50:57;92606.78;;;8.37;82.56
11680;BME280;5896;42.686;23.142;2024-03-02T12:53:22;92608.50;;;8.24;84.19
11680;BME280;5896;42.686;23.142;2024-03-02T12:55:48;92610.84;;;8.08;84.76
11680;BME280;5896;42.686;23.142;2024-03-02T12:58:22;92609.28;;;8.25;84.85
11680;BME280;5896;42.686;23.142;2024-03-02T13:00:48;92607.06;;;8.28;83.49
11680;BME280;5896;42.686;23.142;2024-03-02T13:03:13;92617.75;;;8.50;83.11
11680;BME280;5896;42.686;23.142;2024-03-02T13:05:39;92607.53;;;8.62;82.89
11680;BME280;5896;42.686;23.142;2024-03-02T13:08:06;92612.25;;;8.65;82.21
11680;BME280;5896;42.686;23.142;2024-03-02T13:10:32;92613.41;;;8.69;82.54
11680;BME280;5896;42.686;23.142;2024-03-02T13:12:58;92611.59;;;8.70;83.20